Portada
METAR-TAF:

METAR-TAF

Aeroports :

Aeroport Internacional de Gafsa

Gafsa, Tunísia

latitud: 34-25N, longitud: 008-49E, altitud: 313 m

Observació

L'informe es va fer fa 1 hora i 21 minuts, a les 01:00 UTC
Vent 10 kt del Nord
Temperatura 24°C
Humitat 36%
Pressió 1016 hPa
Visibilitat 10 km o més
sense núvols per sota de 1500 mi sense presència de cumulonimbus.

METAR: DTTF 160100Z 01010KT CAVOK 24/08 Q1016 NOSIG

Hora: 03:21 (02:21 UTC)

Pronòstic

L'informe es va fer fa 2 hores i 21 minuts, a les 00:00 UTC
Pronòstic vàlid del 16 a les 01 UTC al 16 a les 10 UTC
Vent 5 kt del Nord
Visibilitat 10 km o més
sense núvols per sota de 1500 mi sense presència de cumulonimbus.

TAF: DTTF 160000Z 1601/1610 35005KT CAVOK

Observacions i pronòstics meteorològics de més de 4000 aeroports (METAR i TAF).

Les estacions disponibles són els punts grocs i vermells al mapa.

Posi el ratolí al punt desitjat per veure el nom de l'estació.

Feu clic per veure les observacions i els pronòstics meteorològics.

Per canviar el mapa: feu clic els botons verds amb una creu de color negre per apropar; al botó verd amb un guió per allunyar la imatge; o en les fletxes verdes per a mapes adjacents.


METAR-TAF: